Time;durP1;ratioP1;P1;durP2;ratioP2;P2;SDS_P1;SDS_P2;PMS_P1;PMS_P2;Temp;Humidity;BMP_temperature;BMP_pressure;BME280_temperature;BME280_humidity;BME280_pressure;Samples;Min_cycle;Max_cycle;Signal;HPM_P1;HPM_P2
2022/07/04 00:00:09;;;;;;;3.55;2.50;;;;;;;18.09;54.62;101946.84;5070399;28;20032;-69
2022/07/04 00:02:38;;;;;;;3.88;2.10;;;;;;;18.05;54.69;101945.69;5085849;28;20020;-69
2022/07/04 00:05:04;;;;;;;2.67;2.15;;;;;;;18.03;54.94;101943.16;5067368;28;20025;-69
2022/07/04 00:07:29;;;;;;;5.80;2.10;;;;;;;18.01;54.76;101947.38;5070999;28;20086;-69
2022/07/04 00:09:55;;;;;;;3.80;2.33;;;;;;;17.98;54.92;101945.13;5070211;28;20032;-69
2022/07/04 00:12:21;;;;;;;5.85;2.80;;;;;;;17.98;54.83;101945.13;5072919;28;20069;-69
2022/07/04 00:14:46;;;;;;;3.33;2.25;;;;;;;18.00;54.93;101937.25;5068732;28;20053;-69
2022/07/04 00:17:11;;;;;;;3.80;2.55;;;;;;;17.93;55.02;101939.50;5078396;28;20460;-69
2022/07/04 00:19:37;;;;;;;5.80;2.97;;;;;;;17.94;54.97;101936.41;5078970;28;20055;-69
2022/07/04 00:22:02;;;;;;;5.13;2.70;;;;;;;17.86;54.96;101934.97;5072736;28;20031;-69
2022/07/04 00:24:28;;;;;;;7.88;3.03;;;;;;;17.81;55.36;101937.75;5070220;28;20024;-69
2022/07/04 00:26:53;;;;;;;9.48;2.92;;;;;;;17.78;55.09;101926.25;5068626;28;20070;-69
2022/07/04 00:29:18;;;;;;;4.70;2.92;;;;;;;17.72;55.25;101930.94;5068476;28;20032;-69
2022/07/04 00:31:44;;;;;;;5.78;2.95;;;;;;;17.72;55.33;101936.56;5071607;28;20020;-69
2022/07/04 00:34:09;;;;;;;4.47;2.83;;;;;;;17.76;55.42;101937.72;5068171;28;20422;-69
2022/07/04 00:36:35;;;;;;;6.13;3.22;;;;;;;17.72;55.66;101935.72;5069761;28;20036;-69
2022/07/04 00:39:00;;;;;;;5.72;2.75;;;;;;;17.72;55.51;101935.72;5072855;28;20434;-69
2022/07/04 00:41:26;;;;;;;4.68;2.90;;;;;;;17.61;55.79;101932.88;5070533;28;20024;-69
2022/07/04 00:44:05;;;;;;;3.33;2.28;;;;;;;17.64;55.37;101937.97;5072578;28;20017;-69
2022/07/04 00:46:31;;;;;;;4.13;2.20;;;;;;;17.57;55.90;101934.56;5072337;28;20052;-69
2022/07/04 00:48:56;;;;;;;4.93;2.63;;;;;;;17.54;55.40;101935.09;5065620;28;20508;-69
2022/07/04 00:51:23;;;;;;;4.65;2.70;;;;;;;17.57;55.31;101934.56;5071717;28;20021;-70
2022/07/04 00:53:49;;;;;;;6.40;2.70;;;;;;;17.56;55.29;101932.84;5070709;28;20016;-69
2022/07/04 00:56:15;;;;;;;5.28;2.65;;;;;;;17.46;55.19;101932.81;5070568;28;20024;-68
2022/07/04 00:58:40;;;;;;;2.75;2.35;;;;;;;17.48;55.41;101932.53;5076185;28;20102;-69
2022/07/04 01:01:06;;;;;;;6.63;2.80;;;;;;;17.46;55.37;101940.38;5071806;28;20535;-69
2022/07/04 01:03:31;;;;;;;4.00;2.30;;;;;;;17.49;55.32;101939.81;5069554;28;20038;-69
2022/07/04 01:05:59;;;;;;;4.35;2.70;;;;;;;17.42;55.43;101929.69;5067179;28;20115;-69
2022/07/04 01:08:25;;;;;;;4.20;2.70;;;;;;;17.42;55.18;101926.91;5069934;28;20120;-69
2022/07/04 01:10:50;;;;;;;4.43;2.95;;;;;;;17.42;54.93;101924.09;5070322;28;20033;-69
2022/07/04 01:13:20;;;;;;;3.75;2.95;;;;;;;17.37;55.18;101924.06;5068754;28;20024;-69
2022/07/04 01:15:46;;;;;;;5.53;3.03;;;;;;;17.37;54.83;101915.66;5070045;28;20439;-69
2022/07/04 01:18:11;;;;;;;5.15;2.90;;;;;;;17.32;55.16;101915.59;5072361;28;20170;-69
2022/07/04 01:20:37;;;;;;;4.57;3.00;;;;;;;17.27;55.36;101918.41;5071790;28;20056;-69
2022/07/04 01:23:02;;;;;;;4.30;2.45;;;;;;;17.28;54.93;101911.66;5070748;28;20041;-69
2022/07/04 01:25:28;;;;;;;3.40;2.72;;;;;;;17.21;55.13;101907.41;5069519;28;20028;-69
2022/07/04 01:27:53;;;;;;;5.88;2.80;;;;;;;17.25;54.89;101906.63;5069762;28;20036;-69
2022/07/04 01:30:18;;;;;;;4.95;2.75;;;;;;;17.21;54.75;101905.44;5070867;28;20028;-69
2022/07/04 01:32:44;;;;;;;4.03;2.78;;;;;;;17.22;55.00;101898.75;5071622;28;20074;-69
2022/07/04 01:35:10;;;;;;;2.97;2.53;;;;;;;17.23;54.63;101894.81;5070733;28;20016;-69
2022/07/04 01:37:36;;;;;;;5.07;2.70;;;;;;;17.16;55.19;101903.44;5070237;28;20431;-69
2022/07/04 01:40:01;;;;;;;4.82;3.05;;;;;;;17.23;55.13;101903.22;5079718;28;20032;-69
2022/07/04 01:42:27;;;;;;;4.78;2.53;;;;;;;17.17;55.09;101895.88;5071303;28;20037;-68
2022/07/04 01:44:52;;;;;;;2.75;2.45;;;;;;;17.14;55.29;101891.69;5069513;28;20055;-69
2022/07/04 01:47:17;;;;;;;5.38;3.05;;;;;;;17.15;55.44;101889.72;5071654;28;20043;-69
2022/07/04 01:49:43;;;;;;;3.67;2.78;;;;;;;17.10;55.63;101886.88;5070737;28;20039;-69
2022/07/04 01:52:08;;;;;;;4.95;2.83;;;;;;;17.11;55.74;101881.00;5070606;28;20028;-69
2022/07/04 01:54:33;;;;;;;5.03;2.90;;;;;;;17.07;55.71;101885.47;5071257;28;20078;-68
2022/07/04 01:56:58;;;;;;;4.88;2.90;;;;;;;17.05;55.42;101889.66;5069470;28;20028;-68
2022/07/04 02:01:29;;;;;;;4.93;2.58;;;;;;;17.08;55.70;101880.69;5071065;28;20178;-68
2022/07/04 02:02:09;;;;;;;4.05;2.60;;;;;;;17.03;55.51;101880.66;5069495;28;20033;-68
2022/07/04 02:04:34;;;;;;;3.22;2.75;;;;;;;17.01;55.46;101880.09;5070065;28;20048;-69
2022/07/04 02:07:00;;;;;;;5.70;3.15;;;;;;;17.05;55.42;101878.41;5067519;28;20108;-69
2022/07/04 02:09:25;;;;;;;3.00;2.67;;;;;;;16.96;55.67;101875.28;5074122;28;20063;-69
2022/07/04 02:14:34;;;;;;;5.28;3.03;;;;;;;16.93;55.47;101878.63;5069442;28;20047;-69
2022/07/04 02:17:00;;;;;;;5.28;2.97;;;;;;;16.92;55.62;101875.00;5073327;28;20025;-69
2022/07/04 02:19:26;;;;;;;3.63;2.65;;;;;;;16.89;55.58;101881.13;5086931;28;20028;-68
2022/07/04 02:21:51;;;;;;;2.97;2.67;;;;;;;16.86;55.94;101876.09;5073976;28;20032;-68
2022/07/04 02:24:17;;;;;;;3.42;2.88;;;;;;;16.81;56.37;101870.44;5074802;28;20082;-69
2022/07/04 02:26:42;;;;;;;5.05;2.72;;;;;;;16.82;56.38;101872.13;5068025;28;20028;-69
2022/07/04 02:29:08;;;;;;;4.05;2.88;;;;;;;16.76;56.24;101878.81;5073294;28;20056;-69
2022/07/04 02:31:33;;;;;;;5.45;3.40;;;;;;;16.71;56.33;101884.34;5073215;28;20165;-69
2022/07/04 02:33:58;;;;;;;4.05;2.90;;;;;;;16.69;56.39;101890.22;5073331;28;20111;-69
2022/07/04 02:36:24;;;;;;;3.15;2.85;;;;;;;16.67;56.27;101884.06;5063473;28;20056;-69
2022/07/04 02:38:49;;;;;;;4.78;3.67;;;;;;;16.64;56.45;101894.94;5073102;28;20040;-69
2022/07/04 02:41:14;;;;;;;7.15;3.30;;;;;;;16.60;56.41;101894.63;5073496;28;20052;-69
2022/07/04 02:43:39;;;;;;;4.72;3.30;;;;;;;16.61;56.38;101893.53;5071531;28;20529;-69
2022/07/04 02:46:05;;;;;;;6.00;3.35;;;;;;;16.59;56.36;101892.13;5072068;28;20032;-69
2022/07/04 02:48:30;;;;;;;6.38;3.50;;;;;;;16.60;56.43;101882.59;5073564;28;20384;-69
2022/07/04 02:50:55;;;;;;;4.65;3.22;;;;;;;16.55;56.63;101890.97;5073439;28;20024;-69
2022/07/04 02:53:20;;;;;;;5.97;3.47;;;;;;;16.55;56.69;101889.00;5077443;28;20016;-69
2022/07/04 02:55:46;;;;;;;4.07;3.35;;;;;;;16.55;56.72;101882.56;5053385;28;20091;-69
2022/07/04 02:58:11;;;;;;;3.85;3.40;;;;;;;16.56;56.73;101892.66;5075229;28;20036;-68
2022/07/04 03:00:36;;;;;;;6.32;3.75;;;;;;;16.50;56.89;101900.16;5070636;28;20521;-69
2022/07/04 03:03:02;;;;;;;4.45;3.22;;;;;;;16.49;57.13;101892.03;5073097;28;20111;-69
2022/07/04 03:05:31;;;;;;;5.70;3.40;;;;;;;16.46;57.13;101901.81;5073240;28;20051;-69
2022/07/04 03:07:59;;;;;;;9.23;3.90;;;;;;;16.43;57.30;101903.19;5067823;28;20547;-69
2022/07/04 03:10:25;;;;;;;5.22;3.28;;;;;;;16.38;57.23;101908.72;5069837;28;20484;-69
2022/07/04 03:12:50;;;;;;;3.97;3.55;;;;;;;16.41;57.26;101904.56;5072321;28;20043;-69
2022/07/04 03:15:15;;;;;;;6.75;3.20;;;;;;;16.38;57.45;101916.31;5072497;28;20028;-69
2022/07/04 03:17:40;;;;;;;5.50;3.35;;;;;;;16.36;57.74;101921.34;5078334;28;20036;-69
2022/07/04 03:20:06;;;;;;;5.15;3.17;;;;;;;16.35;57.67;101919.66;5066066;28;20053;-68
2022/07/04 03:22:32;;;;;;;5.72;3.72;;;;;;;16.36;57.59;101916.59;5049640;28;20491;-69
2022/07/04 03:24:57;;;;;;;8.68;3.60;;;;;;;16.39;57.71;101916.06;5050031;28;20037;-69
2022/07/04 03:27:22;;;;;;;7.20;3.33;;;;;;;16.39;57.85;101918.84;5064200;28;20053;-69
2022/07/04 03:29:48;;;;;;;5.00;3.60;;;;;;;16.38;57.97;101914.34;5052540;28;20068;-67
2022/07/04 03:32:13;;;;;;;4.25;3.65;;;;;;;16.35;58.10;101926.09;5056083;28;20123;-68
2022/07/04 03:34:38;;;;;;;5.85;4.07;;;;;;;16.40;58.13;101928.09;5055483;28;20483;-68
2022/07/04 03:37:04;;;;;;;6.22;3.30;;;;;;;16.31;58.26;101922.16;5058716;28;20063;-69
2022/07/04 03:39:29;;;;;;;5.45;3.30;;;;;;;16.36;58.25;101932.56;5053094;28;20036;-69
2022/07/04 03:41:54;;;;;;;6.85;3.30;;;;;;;16.35;58.45;101930.88;5049636;28;20050;-69
2022/07/04 03:44:19;;;;;;;6.38;3.17;;;;;;;16.36;58.50;101933.38;5052673;28;20020;-68
2022/07/04 03:46:45;;;;;;;4.10;2.90;;;;;;;16.34;58.72;101934.75;5052451;28;20029;-68
2022/07/04 03:49:10;;;;;;;5.53;3.17;;;;;;;16.39;58.40;101946.88;5050294;28;20046;-69
2022/07/04 03:51:36;;;;;;;5.78;3.50;;;;;;;16.35;58.95;101942.91;5050391;28;20079;-68
2022/07/04 03:54:01;;;;;;;3.75;3.05;;;;;;;16.33;58.74;101944.28;5052367;28;20021;-69
2022/07/04 03:56:26;;;;;;;5.05;3.50;;;;;;;16.38;58.63;101944.31;5050897;28;20079;-69
2022/07/04 03:58:51;;;;;;;6.88;3.53;;;;;;;16.35;58.80;101942.91;5051726;28;20025;-69
2022/07/04 04:01:18;;;;;;;6.60;3.75;;;;;;;16.34;59.08;101952.41;5049740;28;20025;-68
2022/07/04 04:06:29;;;;;;;10.98;3.47;;;;;;;16.37;59.05;101951.03;5042921;28;20123;-68
2022/07/04 04:08:54;;;;;;;7.15;3.70;;;;;;;16.32;59.47;101954.66;5048334;28;20706;-69
2022/07/04 04:11:19;;;;;;;6.30;3.70;;;;;;;16.38;59.64;101947.13;5052969;28;20029;-69
2022/07/04 04:13:45;;;;;;;7.07;3.97;;;;;;;16.36;60.11;101949.34;5048458;28;20028;-69
2022/07/04 04:16:10;;;;;;;8.73;3.60;;;;;;;16.37;60.19;101942.63;5051694;28;20104;-69
2022/07/04 04:18:36;;;;;;;5.40;3.33;;;;;;;16.31;60.32;101941.75;5052551;28;20025;-69
2022/07/04 04:21:02;;;;;;;6.20;3.53;;;;;;;16.35;60.27;101954.13;5049270;28;20412;-69
2022/07/04 04:23:27;;;;;;;8.18;3.88;;;;;;;16.38;60.21;101961.13;5071818;28;20043;-69
2022/07/04 04:25:52;;;;;;;7.75;3.55;;;;;;;16.36;60.32;101961.41;5071954;28;20024;-69
2022/07/04 04:28:18;;;;;;;6.65;4.10;;;;;;;16.29;60.65;101971.13;5066816;28;20025;-68
2022/07/04 04:30:43;;;;;;;6.55;3.67;;;;;;;16.26;60.63;101972.50;5070171;28;20040;-68
2022/07/04 04:33:08;;;;;;;8.23;4.03;;;;;;;16.23;60.57;101978.66;5069885;28;20032;-69
2022/07/04 04:35:34;;;;;;;7.55;3.90;;;;;;;16.19;60.77;101981.13;5072265;28;20020;-69
2022/07/04 04:37:59;;;;;;;8.05;4.05;;;;;;;16.27;60.61;101982.63;5070453;28;20033;-68
2022/07/04 04:40:24;;;;;;;9.15;4.00;;;;;;;16.25;60.84;101984.81;5065507;28;20021;-68
2022/07/04 04:42:49;;;;;;;6.05;3.80;;;;;;;16.21;60.84;101986.47;5082171;28;20031;-68
2022/07/04 04:45:18;;;;;;;6.45;3.63;;;;;;;16.20;61.12;101979.19;5074636;28;20073;-68
2022/07/04 04:47:43;;;;;;;6.97;3.55;;;;;;;16.19;61.36;101971.84;5083605;28;20020;-68
2022/07/04 04:50:14;;;;;;;5.40;3.85;;;;;;;16.27;61.06;101968.63;5071926;28;20032;-68
2022/07/04 04:52:40;;;;;;;8.18;3.60;;;;;;;16.31;61.29;101968.91;5068464;28;20025;-68
2022/07/04 04:55:06;;;;;;;7.05;3.75;;;;;;;16.31;61.14;101960.50;5071222;28;20029;-69
2022/07/04 04:57:31;;;;;;;5.20;3.63;;;;;;;16.32;61.05;101967.81;5069170;28;20016;-67
2022/07/04 04:59:56;;;;;;;8.70;3.30;;;;;;;16.32;61.17;101962.22;5067488;28;20075;-68
2022/07/04 05:02:22;;;;;;;6.07;3.58;;;;;;;16.33;61.24;101955.50;5080227;28;20032;-68
2022/07/04 05:04:47;;;;;;;4.47;3.40;;;;;;;16.40;61.12;101961.72;5084147;28;20031;-68
2022/07/04 05:07:12;;;;;;;4.43;3.47;;;;;;;16.35;61.36;101953.28;5060786;28;20036;-68
2022/07/04 05:09:39;;;;;;;7.40;3.35;;;;;;;16.41;61.10;101958.66;5073092;28;20084;-68
2022/07/04 05:12:05;;;;;;;8.07;3.53;;;;;;;16.43;61.20;101955.59;5059683;28;20024;-69
2022/07/04 05:14:30;;;;;;;8.13;4.32;;;;;;;16.41;61.57;101955.84;5071745;28;20108;-68
2022/07/04 05:16:55;;;;;;;8.55;3.88;;;;;;;16.55;61.18;101952.63;5067147;28;20012;-69
2022/07/04 05:19:20;;;;;;;9.90;4.00;;;;;;;16.58;61.41;101958.50;5071268;28;20357;-68
2022/07/04 05:21:46;;;;;;;7.20;4.05;;;;;;;16.53;61.56;101947.28;5070398;28;20045;-67
2022/07/04 05:24:11;;;;;;;8.38;4.20;;;;;;;16.65;61.04;101953.53;5080818;28;20360;-68
2022/07/04 05:26:37;;;;;;;10.88;3.85;;;;;;;16.71;61.43;101959.22;5069551;28;20029;-68
2022/07/04 05:29:02;;;;;;;6.72;4.10;;;;;;;16.74;61.29;101959.56;5069162;28;20043;-68
2022/07/04 05:31:28;;;;;;;10.65;4.07;;;;;;;16.82;61.37;101958.19;5069064;28;20032;-68
2022/07/04 05:33:54;;;;;;;8.52;4.18;;;;;;;16.86;61.22;101960.22;5071286;28;20026;-68
2022/07/04 05:36:19;;;;;;;7.85;4.13;;;;;;;16.86;61.39;101968.63;5070694;28;20147;-68
2022/07/04 05:38:45;;;;;;;12.13;4.03;;;;;;;16.99;61.15;101963.66;5060363;28;20488;-68
2022/07/04 05:41:10;;;;;;;9.50;3.92;;;;;;;17.06;61.17;101958.69;5074225;28;20029;-68
2022/07/04 05:43:35;;;;;;;7.07;3.72;;;;;;;17.19;60.48;101972.22;5080117;28;20020;-68
2022/07/04 05:46:00;;;;;;;6.22;3.40;;;;;;;17.23;60.31;101967.75;5068839;28;20483;-69
2022/07/04 05:48:26;;;;;;;10.18;3.78;;;;;;;17.30;60.72;101973.97;5070567;28;20032;-69
2022/07/04 05:50:51;;;;;;;6.28;3.80;;;;;;;17.33;60.88;101970.63;5070017;28;20031;-68
2022/07/04 05:53:16;;;;;;;6.10;3.75;;;;;;;17.35;60.67;101968.38;5073419;28;20067;-69
2022/07/04 05:55:42;;;;;;;6.57;3.55;;;;;;;17.43;60.37;101965.06;5069162;28;20052;-69
2022/07/04 05:58:07;;;;;;;8.07;3.60;;;;;;;17.49;60.62;101976.31;5059492;28;20032;-69
2022/07/04 06:00:32;;;;;;;7.72;3.80;;;;;;;17.52;60.63;101978.56;5072608;28;20032;-69
2022/07/04 06:02:57;;;;;;;5.88;3.45;;;;;;;17.63;60.27;101988.75;5069438;28;20462;-69
2022/07/04 06:05:23;;;;;;;8.20;3.83;;;;;;;17.63;60.41;101983.13;5069991;28;20040;-67
2022/07/04 06:07:48;;;;;;;7.53;3.22;;;;;;;17.69;60.22;101984.88;5068173;28;20035;-68
2022/07/04 06:10:14;;;;;;;6.30;2.28;;;;;;;18.00;62.47;101980.25;5067597;28;20040;-69
2022/07/04 06:12:40;;;;;;;4.38;2.10;;;;;;;18.25;62.26;101982.28;5068750;28;20029;-71
2022/07/04 06:15:06;;;;;;;7.15;2.83;;;;;;;18.30;60.97;101985.09;5066220;28;20455;-68
2022/07/04 06:17:34;;;;;;;5.57;2.22;;;;;;;18.51;61.30;101980.38;5060192;28;20039;-68
2022/07/04 06:20:00;;;;;;;7.55;2.30;;;;;;;18.63;60.22;101977.28;5069992;28;20117;-67
2022/07/04 06:22:25;;;;;;;7.57;2.08;;;;;;;18.76;59.80;101973.94;5065859;28;20029;-67
2022/07/04 06:24:50;;;;;;;4.28;2.58;;;;;;;18.83;59.58;101982.94;5070533;28;20055;-67
2022/07/04 06:27:16;;;;;;;4.15;2.28;;;;;;;18.87;59.35;101978.44;5064472;28;20442;-68
2022/07/04 06:29:41;;;;;;;5.30;2.10;;;;;;;18.95;58.75;101984.63;5068669;28;20040;-67
2022/07/04 06:32:07;;;;;;;5.68;2.50;;;;;;;19.01;58.02;101980.69;5069917;28;20028;-66
2022/07/04 06:37:17;;;;;;;6.30;1.98;;;;;;;19.27;57.87;101987.97;5058849;28;20506;-71
2022/07/04 06:39:42;;;;;;;4.43;1.85;;;;;;;19.29;56.74;101979.22;5058230;28;20020;-70
2022/07/04 06:42:10;;;;;;;6.18;2.38;;;;;;;19.37;57.41;101976.69;5069378;28;20032;-69
2022/07/04 06:44:35;;;;;;;3.88;2.00;;;;;;;19.48;57.35;101979.47;5070014;28;20067;-71
2022/07/04 06:47:04;;;;;;;5.88;2.00;;;;;;;19.49;56.63;101981.16;5068692;28;20052;-69
2022/07/04 06:49:29;;;;;;;4.95;2.00;;;;;;;19.63;56.57;101976.63;5063271;28;20044;-71
2022/07/04 06:51:54;;;;;;;5.03;1.67;;;;;;;19.68;56.29;101982.25;5068291;28;20090;-69
2022/07/04 06:54:19;;;;;;;5.53;2.30;;;;;;;19.71;55.84;101984.50;5068118;28;20396;-73
2022/07/04 06:56:45;;;;;;;6.75;2.30;;;;;;;19.66;55.67;101990.16;5067689;28;20029;-70
2022/07/04 06:59:10;;;;;;;6.30;2.00;;;;;;;19.79;55.91;101983.91;5067274;28;20020;-73
2022/07/04 07:01:35;;;;;;;4.25;1.88;;;;;;;19.82;55.38;101980.50;5069207;28;20044;-72
2022/07/04 07:04:01;;;;;;;2.95;1.80;;;;;;;19.82;55.28;101965.59;5062728;28;20475;-70
2022/07/04 07:06:26;;;;;;;5.28;1.63;;;;;;;19.92;55.37;101971.16;5064366;28;20028;-74
2022/07/04 07:08:54;;;;;;;4.30;1.70;;;;;;;19.93;53.98;101961.59;5072095;28;20438;-76
2022/07/04 07:11:19;;;;;;;5.18;1.52;;;;;;;20.00;54.35;101961.25;5068453;28;20120;-69
2022/07/04 07:13:51;;;;;;;5.15;1.63;;;;;;;20.15;54.48;101966.81;5067109;28;20111;-68
2022/07/04 07:16:16;;;;;;;4.47;1.57;;;;;;;20.22;53.85;101961.69;5072389;28;20174;-69
2022/07/04 07:18:44;;;;;;;3.88;1.73;;;;;;;20.23;53.20;101966.19;5064177;28;20021;-69
2022/07/04 07:21:10;;;;;;;9.27;2.00;;;;;;;20.21;53.11;101962.00;5071104;28;20075;-65
2022/07/04 07:23:42;;;;;;;5.72;2.20;;;;;;;20.17;53.63;101958.91;5070649;28;20060;-70
2022/07/04 07:26:08;;;;;;;4.32;1.50;;;;;;;20.20;53.14;101966.81;5062212;28;20384;-71
2022/07/04 07:28:34;;;;;;;7.43;1.63;;;;;;;20.20;53.87;101966.81;5053584;28;20035;-69
2022/07/04 07:31:00;;;;;;;4.60;1.73;;;;;;;20.20;53.57;101972.44;5066659;28;20029;-73
2022/07/04 07:33:26;;;;;;;4.63;2.03;;;;;;;20.26;53.69;101979.72;5064965;28;20044;-72
2022/07/04 07:35:51;;;;;;;3.83;1.52;;;;;;;20.33;52.80;101985.03;5068337;28;20040;-75
2022/07/04 07:38:16;;;;;;;3.50;1.40;;;;;;;20.34;53.19;101981.91;5068675;28;20089;-73
2022/07/04 07:40:41;;;;;;;6.30;1.55;;;;;;;20.37;52.97;101988.13;5066054;28;20028;-73
2022/07/04 07:43:07;;;;;;;2.67;1.40;;;;;;;20.32;52.26;101984.22;5067464;28;20036;-71
2022/07/04 07:45:33;;;;;;;6.25;1.40;;;;;;;20.44;52.45;101983.00;5067098;28;20024;-76
2022/07/04 07:47:58;;;;;;;2.50;1.40;;;;;;;20.52;52.25;101973.97;5056183;28;20026;-73
2022/07/04 07:50:23;;;;;;;5.57;1.40;;;;;;;20.58;52.16;101967.13;5061755;28;20042;-73
2022/07/04 07:52:49;;;;;;;4.93;1.67;;;;;;;20.63;51.12;101964.25;5069113;28;20020;-70
2022/07/04 07:55:14;;;;;;;3.53;1.52;;;;;;;20.75;51.63;101967.56;5069568;28;20056;-69
2022/07/04 07:57:39;;;;;;;5.07;1.48;;;;;;;20.72;50.63;101964.50;5063306;28;20029;-68
2022/07/04 08:00:05;;;;;;;3.40;1.13;;;;;;;20.84;50.58;101964.94;5059116;28;20502;-71
2022/07/04 08:05:15;;;;;;;4.03;0.98;;;;;;;21.01;50.42;101953.22;5072676;28;20042;-68
2022/07/04 08:07:40;;;;;;;4.32;1.48;;;;;;;21.02;50.00;101949.25;5066030;28;20040;-68
2022/07/04 08:10:06;;;;;;;3.63;1.20;;;;;;;21.05;49.63;101954.31;5071359;28;20476;-67
2022/07/04 08:12:32;;;;;;;6.80;1.80;;;;;;;20.99;48.08;101952.69;5073387;28;20048;-68
2022/07/04 08:14:57;;;;;;;3.92;1.13;;;;;;;21.13;49.75;101962.13;5069366;28;20075;-69
2022/07/04 08:17:22;;;;;;;4.28;1.27;;;;;;;21.14;48.96;101960.13;5069844;28;20036;-68
2022/07/04 08:19:48;;;;;;;4.05;1.60;;;;;;;21.12;48.99;101963.28;5069808;28;20028;-68
2022/07/04 08:22:13;;;;;;;4.20;1.10;;;;;;;21.25;49.12;101956.06;5063618;28;20032;-68
2022/07/04 08:24:39;;;;;;;2.55;1.10;;;;;;;21.28;48.87;101964.78;5068903;28;20127;-69
2022/07/04 08:27:04;;;;;;;7.25;1.20;;;;;;;21.33;48.49;101972.41;5070823;28;20024;-70
2022/07/04 08:29:32;;;;;;;2.83;1.00;;;;;;;21.35;48.50;101972.94;5070133;28;20029;-69
2022/07/04 08:31:57;;;;;;;2.38;1.38;;;;;;;21.30;48.22;101979.47;5064744;28;20021;-69
2022/07/04 08:34:22;;;;;;;5.28;1.33;;;;;;;21.35;48.34;101981.44;5074060;28;20086;-68
2022/07/04 08:36:48;;;;;;;4.68;1.50;;;;;;;21.44;48.84;101975.97;5071384;28;20041;-68
2022/07/04 08:39:13;;;;;;;3.80;1.50;;;;;;;21.52;48.86;101973.31;5064214;28;20133;-67
2022/07/04 08:41:40;;;;;;;4.20;1.20;;;;;;;21.60;48.36;101976.63;5067808;28;20016;-76
2022/07/04 08:44:10;;;;;;;5.45;1.20;;;;;;;21.59;48.45;101978.63;5066884;28;20032;-73
2022/07/04 08:46:39;;;;;;;4.88;1.10;;;;;;;21.70;48.90;101968.03;5069693;28;20085;-72
2022/07/04 08:49:14;;;;;;;4.00;1.38;;;;;;;21.66;48.40;101978.25;5071568;28;20499;-73
2022/07/04 08:51:54;;;;;;;4.25;1.20;;;;;;;21.69;48.37;101974.81;5068774;28;20032;-71
2022/07/04 08:59:50;;;;;;;3.75;1.08;;;;;;;21.75;48.03;101982.94;5064751;28;20483;-71
2022/07/04 09:02:18;;;;;;;2.78;1.05;;;;;;;21.67;48.55;101977.94;5065902;28;20107;-69
2022/07/04 09:04:43;;;;;;;3.40;1.52;;;;;;;21.67;48.50;101980.78;5066665;28;20027;-71
2022/07/04 09:07:11;;;;;;;4.40;1.50;;;;;;;21.72;48.44;101979.88;5070443;28;20017;-69
2022/07/04 09:09:38;;;;;;;5.28;1.30;;;;;;;21.75;48.21;101977.28;5069097;28;20115;-70
2022/07/04 09:12:04;;;;;;;7.35;1.40;;;;;;;21.77;48.38;101975.00;5063893;28;20461;-70
2022/07/04 09:14:29;;;;;;;6.97;1.73;;;;;;;21.79;48.15;101983.16;5069863;28;20036;-75
2022/07/04 09:16:56;;;;;;;3.63;1.20;;;;;;;21.93;48.54;101975.66;5072190;28;20093;-71
2022/07/04 09:19:22;;;;;;;3.33;1.30;;;;;;;22.01;47.72;101974.16;5075916;28;20499;-72
2022/07/04 09:21:48;;;;;;;2.65;1.00;;;;;;;21.97;48.16;101979.56;5072744;28;20084;-71
2022/07/04 09:24:14;;;;;;;2.75;1.20;;;;;;;21.96;46.83;101980.69;5073264;28;20033;-72
2022/07/04 09:26:46;;;;;;;4.60;1.42;;;;;;;22.03;47.13;101969.00;5086862;28;20047;-72
2022/07/04 09:29:13;;;;;;;5.55;1.17;;;;;;;22.10;47.51;101980.78;5079933;28;20052;-72
2022/07/04 09:31:38;;;;;;;3.47;1.30;;;;;;;22.19;47.42;101981.81;5075075;28;20093;-72
2022/07/04 09:34:07;;;;;;;7.30;1.40;;;;;;;22.15;47.01;101972.25;5074656;28;20016;-72
2022/07/04 09:36:38;;;;;;;4.90;1.40;;;;;;;22.20;47.56;101974.16;5073977;28;20052;-70
2022/07/04 09:39:21;;;;;;;2.15;1.10;;;;;;;22.14;47.43;101981.91;5074966;28;20392;-71
2022/07/04 09:41:57;;;;;;;3.63;1.10;;;;;;;22.19;47.47;101976.16;5085742;28;20407;-70
2022/07/04 09:44:25;;;;;;;2.65;0.90;;;;;;;22.12;46.25;101972.81;5094495;28;20024;-71
2022/07/04 09:46:51;;;;;;;2.55;1.35;;;;;;;22.15;46.78;101969.44;5068563;28;20475;-70
2022/07/04 09:49:17;;;;;;;2.85;0.85;;;;;;;22.23;46.91;101971.56;5074040;28;20028;-70
2022/07/04 09:51:43;;;;;;;5.47;1.20;;;;;;;22.38;47.52;101967.69;5074885;28;20040;-73
2022/07/04 09:54:13;;;;;;;4.60;1.20;;;;;;;22.43;47.24;101978.06;5072464;28;21365;-72
2022/07/04 09:56:43;;;;;;;4.38;1.60;;;;;;;22.64;45.90;101968.13;5063619;28;20827;-71
2022/07/04 09:59:08;;;;;;;3.33;1.23;;;;;;;22.68;46.03;101972.03;5073195;28;20395;-73
2022/07/04 10:01:34;;;;;;;6.45;1.40;;;;;;;22.73;46.09;101976.75;5079002;28;20033;-71
2022/07/04 10:03:59;;;;;;;6.82;1.70;;;;;;;22.69;46.05;101965.22;5068616;28;20028;-72
2022/07/04 10:06:25;;;;;;;6.97;1.40;;;;;;;22.77;46.80;101966.50;5073151;28;20029;-74
2022/07/04 10:08:51;;;;;;;3.55;1.30;;;;;;;22.78;47.05;101965.34;5072149;28;20463;-72
2022/07/04 10:11:17;;;;;;;5.15;1.15;;;;;;;22.77;46.86;101964.50;5077042;28;20061;-73
2022/07/04 10:13:44;;;;;;;3.53;1.33;;;;;;;22.84;46.33;101971.78;5084791;28;20036;-73
2022/07/04 10:16:10;;;;;;;5.68;1.52;;;;;;;22.95;45.85;101967.63;5072448;28;20032;-75
2022/07/04 10:18:36;;;;;;;6.22;1.77;;;;;;;22.97;45.29;101954.03;5072765;28;20071;-77
2022/07/04 10:21:01;;;;;;;4.13;1.13;;;;;;;23.03;45.34;101964.13;5066970;28;20063;-77
2022/07/04 10:23:31;;;;;;;2.90;1.20;;;;;;;23.00;45.00;101959.06;5073682;28;20385;-73
2022/07/04 10:25:57;;;;;;;6.93;1.60;;;;;;;23.07;45.15;101953.84;5074589;28;20364;-76
2022/07/04 10:28:22;;;;;;;2.75;1.20;;;;;;;23.14;44.92;101956.25;5071940;28;20036;-71
2022/07/04 10:30:51;;;;;;;3.88;1.48;;;;;;;23.23;45.29;101954.41;5075667;28;20039;-69
2022/07/04 10:33:21;;;;;;;2.42;1.45;;;;;;;23.27;44.79;101950.63;5079366;28;20032;-78
2022/07/04 10:35:47;;;;;;;6.80;1.50;;;;;;;23.20;44.21;101944.53;5071140;28;20025;-74
2022/07/04 10:38:12;;;;;;;7.07;1.70;;;;;;;23.19;43.98;101945.69;5069770;28;20499;-71
2022/07/04 10:40:56;;;;;;;4.82;1.48;;;;;;;23.16;44.93;101934.97;5071737;28;20032;-73
2022/07/04 10:43:43;;;;;;;3.88;1.63;;;;;;;23.22;45.29;101941.38;5071627;28;20095;-72
2022/07/04 10:46:14;;;;;;;3.38;1.65;;;;;;;23.17;44.30;101945.13;5072923;28;20471;-71
2022/07/04 10:49:02;;;;;;;3.70;1.80;;;;;;;23.18;44.86;101943.16;5071156;28;20064;-71
2022/07/04 10:51:49;;;;;;;5.80;1.40;;;;;;;23.25;44.74;101932.25;5072680;28;20024;-72
2022/07/04 10:54:17;;;;;;;3.75;1.40;;;;;;;23.33;43.03;101937.19;5068482;28;20025;-72
2022/07/04 10:56:55;;;;;;;7.25;1.52;;;;;;;23.40;43.40;101934.78;5069290;28;20039;-69
2022/07/04 10:59:29;;;;;;;2.50;1.40;;;;;;;23.46;42.71;101929.84;5068699;28;20029;-73
2022/07/04 11:02:17;;;;;;;3.80;1.42;;;;;;;23.46;43.99;101924.16;5078959;28;20040;-76
2022/07/04 11:05:02;;;;;;;9.40;1.60;;;;;;;23.45;44.19;101928.16;5070430;28;20032;-77
2022/07/04 11:07:30;;;;;;;5.10;1.40;;;;;;;23.27;44.05;101927.97;5067920;28;20039;-76
2022/07/04 11:10:10;;;;;;;4.22;1.60;;;;;;;23.30;45.28;101929.31;5071878;28;20044;-77
2022/07/04 11:12:53;;;;;;;2.65;1.38;;;;;;;23.38;44.96;101937.06;5072160;28;20066;-71
2022/07/04 11:15:40;;;;;;;7.57;1.92;;;;;;;23.34;44.32;101930.34;5066686;28;20433;-70
2022/07/04 11:18:10;;;;;;;3.65;1.20;;;;;;;23.51;45.42;101924.94;5066032;28;20048;-73
2022/07/04 11:20:40;;;;;;;3.85;1.40;;;;;;;23.60;43.35;101925.03;5076371;28;20044;-72
2022/07/04 11:23:11;;;;;;;7.28;1.52;;;;;;;23.73;44.42;101929.03;5071598;28;20081;-73
2022/07/04 11:25:38;;;;;;;7.05;1.88;;;;;;;23.68;43.73;101929.16;5071072;28;20044;-76
2022/07/04 11:28:22;;;;;;;4.45;1.38;;;;;;;23.62;44.26;101921.84;5066650;28;20032;-73
2022/07/04 11:30:57;;;;;;;3.88;1.40;;;;;;;23.55;43.29;101925.13;5067878;28;20028;-71
2022/07/04 11:33:26;;;;;;;4.47;1.35;;;;;;;23.59;42.41;101923.34;5057104;28;20108;-72
2022/07/04 11:36:07;;;;;;;3.45;1.50;;;;;;;23.69;43.25;101920.31;5075808;28;20114;-73
2022/07/04 11:38:55;;;;;;;3.95;1.50;;;;;;;23.76;42.97;101920.72;5073254;28;20048;-72